sensor_id;sensor_type;location;lat;lon;timestamp;pressure;altitude;pressure_sealevel;temperature;humidity
18819;BME280;9537;45.594;9.294;2024-01-10T00:00:49;100649.16;;;7.21;61.45
18819;BME280;9537;45.594;9.294;2024-01-10T00:01:51;100655.25;;;7.22;61.42
18819;BME280;9537;45.594;9.294;2024-01-10T00:02:53;100649.00;;;7.23;61.12
18819;BME280;9537;45.594;9.294;2024-01-10T00:03:55;100647.22;;;7.23;60.80
18819;BME280;9537;45.594;9.294;2024-01-10T00:04:55;100653.44;;;7.22;60.32
18819;BME280;9537;45.594;9.294;2024-01-10T00:05:57;100650.94;;;7.21;60.47
18819;BME280;9537;45.594;9.294;2024-01-10T00:06:58;100655.09;;;7.23;60.41
18819;BME280;9537;45.594;9.294;2024-01-10T00:07:59;100650.69;;;7.24;60.76
18819;BME280;9537;45.594;9.294;2024-01-10T00:09:00;100650.69;;;7.24;60.64
18819;BME280;9537;45.594;9.294;2024-01-10T00:10:03;100655.09;;;7.23;60.00
18819;BME280;9537;45.594;9.294;2024-01-10T00:11:04;100651.63;;;7.23;60.63
18819;BME280;9537;45.594;9.294;2024-01-10T00:12:06;100656.91;;;7.23;60.16
18819;BME280;9537;45.594;9.294;2024-01-10T00:13:07;100654.25;;;7.23;59.85
18819;BME280;9537;45.594;9.294;2024-01-10T00:14:09;100654.25;;;7.23;59.83
18819;BME280;9537;45.594;9.294;2024-01-10T00:15:10;100655.97;;;7.24;60.12
18819;BME280;9537;45.594;9.294;2024-01-10T00:16:12;100649.16;;;7.21;59.30
18819;BME280;9537;45.594;9.294;2024-01-10T00:17:13;100658.69;;;7.22;59.64
18819;BME280;9537;45.594;9.294;2024-01-10T00:18:16;100651.63;;;7.23;59.16
18819;BME280;9537;45.594;9.294;2024-01-10T00:19:17;100649.97;;;7.22;59.08
18819;BME280;9537;45.594;9.294;2024-01-10T00:20:19;100656.63;;;7.26;58.83
18819;BME280;9537;45.594;9.294;2024-01-10T00:21:20;100649.72;;;7.25;59.04
18819;BME280;9537;45.594;9.294;2024-01-10T00:22:22;100654.16;;;7.25;58.62
18819;BME280;9537;45.594;9.294;2024-01-10T00:23:22;100653.31;;;7.24;58.99
18819;BME280;9537;45.594;9.294;2024-01-10T00:24:24;100652.63;;;7.22;58.69
18819;BME280;9537;45.594;9.294;2024-01-10T00:25:25;100657.97;;;7.20;58.92
18819;BME280;9537;45.594;9.294;2024-01-10T00:26:27;100657.88;;;7.22;59.09
18819;BME280;9537;45.594;9.294;2024-01-10T00:27:27;100647.34;;;7.22;59.33
18819;BME280;9537;45.594;9.294;2024-01-10T00:28:28;100649.16;;;7.21;58.29
18819;BME280;9537;45.594;9.294;2024-01-10T00:29:30;100662.41;;;7.20;58.15
18819;BME280;9537;45.594;9.294;2024-01-10T00:30:31;100658.13;;;7.19;58.94
18819;BME280;9537;45.594;9.294;2024-01-10T00:31:33;100652.72;;;7.20;58.21
18819;BME280;9537;45.594;9.294;2024-01-10T00:32:33;100658.94;;;7.19;59.12
18819;BME280;9537;45.594;9.294;2024-01-10T00:33:37;100652.97;;;7.17;59.03
18819;BME280;9537;45.594;9.294;2024-01-10T00:34:37;100659.91;;;7.18;59.25
18819;BME280;9537;45.594;9.294;2024-01-10T00:35:38;100654.66;;;7.18;58.86
18819;BME280;9537;45.594;9.294;2024-01-10T00:36:40;100656.44;;;7.18;58.76
18819;BME280;9537;45.594;9.294;2024-01-10T00:37:41;100654.66;;;7.18;58.75
18819;BME280;9537;45.594;9.294;2024-01-10T00:38:45;100662.66;;;7.17;58.79
18819;BME280;9537;45.594;9.294;2024-01-10T00:39:45;100650.34;;;7.17;58.17
18819;BME280;9537;45.594;9.294;2024-01-10T00:40:47;100658.13;;;7.19;58.18
18819;BME280;9537;45.594;9.294;2024-01-10T00:41:48;100653.81;;;7.18;58.22
18819;BME280;9537;45.594;9.294;2024-01-10T00:42:50;100660.03;;;7.17;58.63
18819;BME280;9537;45.594;9.294;2024-01-10T00:43:50;100668.75;;;7.17;58.57
18819;BME280;9537;45.594;9.294;2024-01-10T00:44:52;100664.19;;;7.19;58.63
18819;BME280;9537;45.594;9.294;2024-01-10T00:45:53;100664.19;;;7.19;59.48
18819;BME280;9537;45.594;9.294;2024-01-10T00:46:54;100666.00;;;7.19;59.87
18819;BME280;9537;45.594;9.294;2024-01-10T00:47:55;100660.75;;;7.19;60.46
18819;BME280;9537;45.594;9.294;2024-01-10T00:48:58;100666.84;;;7.19;60.35
18819;BME280;9537;45.594;9.294;2024-01-10T00:49:58;100667.81;;;7.18;60.72
18819;BME280;9537;45.594;9.294;2024-01-10T00:51:00;100668.88;;;7.16;61.68
18819;BME280;9537;45.594;9.294;2024-01-10T00:52:01;100662.09;;;7.13;61.41
18819;BME280;9537;45.594;9.294;2024-01-10T00:53:03;100660.66;;;7.09;61.46
18819;BME280;9537;45.594;9.294;2024-01-10T00:54:04;100666.75;;;7.10;62.36
18819;BME280;9537;45.594;9.294;2024-01-10T00:55:06;100663.41;;;7.08;63.11
18819;BME280;9537;45.594;9.294;2024-01-10T00:56:07;100656.38;;;7.08;63.25
18819;BME280;9537;45.594;9.294;2024-01-10T00:57:09;100662.59;;;7.07;62.83
18819;BME280;9537;45.594;9.294;2024-01-10T00:58:10;100663.28;;;7.09;63.90
18819;BME280;9537;45.594;9.294;2024-01-10T00:59:12;100659.00;;;7.08;63.64
18819;BME280;9537;45.594;9.294;2024-01-10T01:00:13;100660.66;;;7.09;64.02
18819;BME280;9537;45.594;9.294;2024-01-10T01:01:15;100661.63;;;7.08;65.18
18819;BME280;9537;45.594;9.294;2024-01-10T01:02:16;100664.38;;;7.07;65.83
18819;BME280;9537;45.594;9.294;2024-01-10T01:03:18;100666.88;;;7.08;64.91
18819;BME280;9537;45.594;9.294;2024-01-10T01:04:20;100665.91;;;7.09;65.09
18819;BME280;9537;45.594;9.294;2024-01-10T01:05:22;100671.31;;;7.08;65.17
18819;BME280;9537;45.594;9.294;2024-01-10T01:06:22;100671.56;;;7.05;65.23
18819;BME280;9537;45.594;9.294;2024-01-10T01:07:23;100673.34;;;7.04;64.68
18819;BME280;9537;45.594;9.294;2024-01-10T01:08:25;100670.84;;;7.03;63.63
18819;BME280;9537;45.594;9.294;2024-01-10T01:09:26;100679.53;;;7.03;62.23
18819;BME280;9537;45.594;9.294;2024-01-10T01:10:26;100677.75;;;7.04;61.98
18819;BME280;9537;45.594;9.294;2024-01-10T01:11:28;100678.47;;;7.06;62.21
18819;BME280;9537;45.594;9.294;2024-01-10T01:12:29;100679.28;;;7.06;61.01
18819;BME280;9537;45.594;9.294;2024-01-10T01:13:31;100680.25;;;7.05;61.08
18819;BME280;9537;45.594;9.294;2024-01-10T01:14:31;100681.91;;;7.06;61.06
18819;BME280;9537;45.594;9.294;2024-01-10T01:15:33;100685.53;;;7.05;60.44
18819;BME280;9537;45.594;9.294;2024-01-10T01:16:34;100681.09;;;7.06;60.56
18819;BME280;9537;45.594;9.294;2024-01-10T01:17:36;100683.72;;;7.06;61.65
18819;BME280;9537;45.594;9.294;2024-01-10T01:18:36;100678.13;;;6.99;63.01
18819;BME280;9537;45.594;9.294;2024-01-10T01:19:38;100681.13;;;6.94;63.22
18819;BME280;9537;45.594;9.294;2024-01-10T01:20:40;100680.41;;;6.92;63.20
18819;BME280;9537;45.594;9.294;2024-01-10T01:21:42;100685.81;;;6.91;63.35
18819;BME280;9537;45.594;9.294;2024-01-10T01:22:43;100680.41;;;6.92;64.47
18819;BME280;9537;45.594;9.294;2024-01-10T01:23:44;100679.59;;;6.92;64.54
18819;BME280;9537;45.594;9.294;2024-01-10T01:24:46;100682.09;;;6.93;64.89
18819;BME280;9537;45.594;9.294;2024-01-10T01:25:47;100680.78;;;6.99;65.37
18819;BME280;9537;45.594;9.294;2024-01-10T01:26:48;100684.34;;;6.98;66.58
18819;BME280;9537;45.594;9.294;2024-01-10T01:27:49;100683.66;;;6.96;66.68
18819;BME280;9537;45.594;9.294;2024-01-10T01:28:51;100689.84;;;6.95;66.23
18819;BME280;9537;45.594;9.294;2024-01-10T01:29:51;100690.81;;;6.94;66.17
18819;BME280;9537;45.594;9.294;2024-01-10T01:30:53;100689.97;;;6.93;65.98
18819;BME280;9537;45.594;9.294;2024-01-10T01:31:55;100689.00;;;6.94;66.55
18819;BME280;9537;45.594;9.294;2024-01-10T01:32:55;100693.53;;;6.92;66.24
18819;BME280;9537;45.594;9.294;2024-01-10T01:33:57;100693.44;;;6.94;66.09
18819;BME280;9537;45.594;9.294;2024-01-10T01:34:59;100691.78;;;6.93;66.06
18819;BME280;9537;45.594;9.294;2024-01-10T01:36:00;100694.25;;;6.94;66.05
18819;BME280;9537;45.594;9.294;2024-01-10T01:37:02;100693.44;;;6.94;65.70
18819;BME280;9537;45.594;9.294;2024-01-10T01:38:04;100696.31;;;6.91;65.59
18819;BME280;9537;45.594;9.294;2024-01-10T01:39:06;100692.72;;;6.92;66.00
18819;BME280;9537;45.594;9.294;2024-01-10T01:40:08;100696.16;;;6.92;65.85
18819;BME280;9537;45.594;9.294;2024-01-10T01:41:10;100689.16;;;6.93;66.04
18819;BME280;9537;45.594;9.294;2024-01-10T01:42:11;100697.84;;;6.93;66.41
18819;BME280;9537;45.594;9.294;2024-01-10T01:43:18;100696.06;;;6.94;66.36
18819;BME280;9537;45.594;9.294;2024-01-10T01:44:19;100694.41;;;6.93;66.21
18819;BME280;9537;45.594;9.294;2024-01-10T01:45:21;100697.84;;;6.93;65.68
18819;BME280;9537;45.594;9.294;2024-01-10T01:46:23;100697.97;;;6.92;65.28
18819;BME280;9537;45.594;9.294;2024-01-10T01:47:25;100690.22;;;6.90;64.21
18819;BME280;9537;45.594;9.294;2024-01-10T01:48:27;100695.59;;;6.89;63.75
18819;BME280;9537;45.594;9.294;2024-01-10T01:49:29;100689.50;;;6.88;62.64
18819;BME280;9537;45.594;9.294;2024-01-10T01:50:32;100692.84;;;6.90;62.31
18819;BME280;9537;45.594;9.294;2024-01-10T01:51:34;100691.06;;;6.91;61.73
18819;BME280;9537;45.594;9.294;2024-01-10T01:52:37;100690.22;;;6.90;61.90
18819;BME280;9537;45.594;9.294;2024-01-10T01:53:39;100687.59;;;6.90;61.80
18819;BME280;9537;45.594;9.294;2024-01-10T01:54:41;100684.16;;;6.90;61.45
18819;BME280;9537;45.594;9.294;2024-01-10T01:55:44;100689.16;;;6.93;60.28
18819;BME280;9537;45.594;9.294;2024-01-10T01:56:45;100682.09;;;6.93;59.87
18819;BME280;9537;45.594;9.294;2024-01-10T01:57:46;100687.47;;;6.92;59.50
18819;BME280;9537;45.594;9.294;2024-01-10T01:58:50;100685.81;;;6.91;59.74
18819;BME280;9537;45.594;9.294;2024-01-10T01:59:52;100679.47;;;6.93;58.66
18819;BME280;9537;45.594;9.294;2024-01-10T02:00:53;100676.00;;;6.93;58.82
18819;BME280;9537;45.594;9.294;2024-01-10T02:01:55;100687.47;;;6.92;58.87
18819;BME280;9537;45.594;9.294;2024-01-10T02:02:58;100681.28;;;6.93;58.77
18819;BME280;9537;45.594;9.294;2024-01-10T02:04:00;100676.00;;;6.93;58.83
18819;BME280;9537;45.594;9.294;2024-01-10T02:05:03;100678.50;;;6.94;59.07
18819;BME280;9537;45.594;9.294;2024-01-10T02:06:06;100682.09;;;6.93;59.33
18819;BME280;9537;45.594;9.294;2024-01-10T02:07:08;100675.03;;;6.94;59.90
18819;BME280;9537;45.594;9.294;2024-01-10T02:08:09;100678.50;;;6.94;60.00
18819;BME280;9537;45.594;9.294;2024-01-10T02:09:11;100677.41;;;6.97;59.18
18819;BME280;9537;45.594;9.294;2024-01-10T02:10:12;100673.97;;;6.96;59.64
18819;BME280;9537;45.594;9.294;2024-01-10T02:11:14;100673.13;;;6.96;59.40
18819;BME280;9537;45.594;9.294;2024-01-10T02:12:15;100674.06;;;6.95;59.33
18819;BME280;9537;45.594;9.294;2024-01-10T02:13:16;100679.34;;;6.95;59.10
18819;BME280;9537;45.594;9.294;2024-01-10T02:14:18;100674.94;;;6.95;59.17
18819;BME280;9537;45.594;9.294;2024-01-10T02:15:20;100676.59;;;6.96;59.25
18819;BME280;9537;45.594;9.294;2024-01-10T02:16:21;100678.50;;;6.94;58.43
18819;BME280;9537;45.594;9.294;2024-01-10T02:17:24;100678.50;;;6.94;59.06
18819;BME280;9537;45.594;9.294;2024-01-10T02:18:25;100681.94;;;6.95;57.79
18819;BME280;9537;45.594;9.294;2024-01-10T02:19:26;100681.03;;;6.96;57.35
18819;BME280;9537;45.594;9.294;2024-01-10T02:20:29;100676.69;;;6.95;58.12
18819;BME280;9537;45.594;9.294;2024-01-10T02:21:31;100675.16;;;6.92;57.95
18819;BME280;9537;45.594;9.294;2024-01-10T02:22:32;100678.50;;;6.94;58.64
18819;BME280;9537;45.594;9.294;2024-01-10T02:23:34;100684.72;;;6.93;57.78
18819;BME280;9537;45.594;9.294;2024-01-10T02:24:34;100685.81;;;6.91;57.23
18819;BME280;9537;45.594;9.294;2024-01-10T02:25:38;100675.16;;;6.92;57.10
18819;BME280;9537;45.594;9.294;2024-01-10T02:26:39;100673.50;;;6.91;56.56
18819;BME280;9537;45.594;9.294;2024-01-10T02:27:41;100671.69;;;6.92;55.49
18819;BME280;9537;45.594;9.294;2024-01-10T02:28:42;100676.25;;;6.90;55.78
18819;BME280;9537;45.594;9.294;2024-01-10T02:29:44;100670.03;;;6.91;55.08
18819;BME280;9537;45.594;9.294;2024-01-10T02:30:44;100674.56;;;6.89;55.01
18819;BME280;9537;45.594;9.294;2024-01-10T02:31:47;100674.47;;;6.90;53.83
18819;BME280;9537;45.594;9.294;2024-01-10T02:32:48;100675.41;;;6.89;54.25
18819;BME280;9537;45.594;9.294;2024-01-10T02:33:50;100669.31;;;6.89;54.05
18819;BME280;9537;45.594;9.294;2024-01-10T02:34:51;100670.03;;;6.91;53.57
18819;BME280;9537;45.594;9.294;2024-01-10T02:35:53;100676.25;;;6.90;53.79
18819;BME280;9537;45.594;9.294;2024-01-10T02:36:53;100676.13;;;6.91;53.50
18819;BME280;9537;45.594;9.294;2024-01-10T02:37:54;100671.00;;;6.90;54.01
18819;BME280;9537;45.594;9.294;2024-01-10T02:38:56;100670.03;;;6.91;53.93
18819;BME280;9537;45.594;9.294;2024-01-10T02:39:57;100669.06;;;6.92;54.47
18819;BME280;9537;45.594;9.294;2024-01-10T02:41:00;100670.16;;;6.89;54.51
18819;BME280;9537;45.594;9.294;2024-01-10T02:42:03;100664.78;;;6.91;54.46
18819;BME280;9537;45.594;9.294;2024-01-10T02:43:04;100662.28;;;6.89;54.60
18819;BME280;9537;45.594;9.294;2024-01-10T02:44:07;100668.38;;;6.90;54.08
18819;BME280;9537;45.594;9.294;2024-01-10T02:45:09;100667.41;;;6.91;54.25
18819;BME280;9537;45.594;9.294;2024-01-10T02:46:10;100665.63;;;6.91;54.30
18819;BME280;9537;45.594;9.294;2024-01-10T02:47:12;100665.88;;;6.88;54.16
18819;BME280;9537;45.594;9.294;2024-01-10T02:48:13;100664.78;;;6.91;53.34
18819;BME280;9537;45.594;9.294;2024-01-10T02:49:15;100660.50;;;6.90;52.72
18819;BME280;9537;45.594;9.294;2024-01-10T02:50:16;100664.06;;;6.89;53.77
18819;BME280;9537;45.594;9.294;2024-01-10T02:51:18;100661.44;;;6.89;52.68
18819;BME280;9537;45.594;9.294;2024-01-10T02:52:19;100668.63;;;6.87;53.51
18819;BME280;9537;45.594;9.294;2024-01-10T02:53:21;100664.22;;;6.87;53.12
18819;BME280;9537;45.594;9.294;2024-01-10T02:54:22;100663.25;;;6.88;53.66
18819;BME280;9537;45.594;9.294;2024-01-10T02:55:23;100663.38;;;6.87;52.90
18819;BME280;9537;45.594;9.294;2024-01-10T02:56:26;100662.53;;;6.86;52.35
18819;BME280;9537;45.594;9.294;2024-01-10T02:57:27;100667.91;;;6.85;52.17
18819;BME280;9537;45.594;9.294;2024-01-10T02:58:28;100664.47;;;6.84;52.72
18819;BME280;9537;45.594;9.294;2024-01-10T02:59:30;100671.47;;;6.84;52.23
18819;BME280;9537;45.594;9.294;2024-01-10T03:00:31;100667.91;;;6.85;52.31
18819;BME280;9537;45.594;9.294;2024-01-10T03:01:32;100666.94;;;6.86;51.85
18819;BME280;9537;45.594;9.294;2024-01-10T03:02:33;100663.50;;;6.85;51.75
18819;BME280;9537;45.594;9.294;2024-01-10T03:03:35;100660.97;;;6.84;51.78
18819;BME280;9537;45.594;9.294;2024-01-10T03:04:36;100667.34;;;6.81;51.71
18819;BME280;9537;45.594;9.294;2024-01-10T03:05:38;100668.16;;;6.82;50.96
18819;BME280;9537;45.594;9.294;2024-01-10T03:06:38;100665.53;;;6.82;50.87
18819;BME280;9537;45.594;9.294;2024-01-10T03:07:40;100664.56;;;6.83;50.39
18819;BME280;9537;45.594;9.294;2024-01-10T03:08:41;100671.63;;;6.82;51.08
18819;BME280;9537;45.594;9.294;2024-01-10T03:09:43;100669.81;;;6.83;50.56
18819;BME280;9537;45.594;9.294;2024-01-10T03:10:43;100671.47;;;6.84;50.51
18819;BME280;9537;45.594;9.294;2024-01-10T03:11:46;100667.19;;;6.83;50.18
18819;BME280;9537;45.594;9.294;2024-01-10T03:12:48;100674.25;;;6.82;50.53
18819;BME280;9537;45.594;9.294;2024-01-10T03:13:52;100674.34;;;6.81;50.52
18819;BME280;9537;45.594;9.294;2024-01-10T03:14:54;100666.47;;;6.81;50.95
18819;BME280;9537;45.594;9.294;2024-01-10T03:15:54;100665.53;;;6.82;50.84
18819;BME280;9537;45.594;9.294;2024-01-10T03:16:56;100653.34;;;6.81;50.92
18819;BME280;9537;45.594;9.294;2024-01-10T03:17:57;100657.06;;;6.78;50.43
18819;BME280;9537;45.594;9.294;2024-01-10T03:18:58;100658.16;;;6.75;50.44
18819;BME280;9537;45.594;9.294;2024-01-10T03:20:00;100659.94;;;6.75;50.59
18819;BME280;9537;45.594;9.294;2024-01-10T03:21:00;100656.38;;;6.76;50.53
18819;BME280;9537;45.594;9.294;2024-01-10T03:22:03;100664.94;;;6.78;50.88
18819;BME280;9537;45.594;9.294;2024-01-10T03:23:04;100656.22;;;6.77;50.83
18819;BME280;9537;45.594;9.294;2024-01-10T03:24:06;100654.44;;;6.78;50.22
18819;BME280;9537;45.594;9.294;2024-01-10T03:25:07;100659.00;;;6.76;50.33
18819;BME280;9537;45.594;9.294;2024-01-10T03:26:09;100657.19;;;6.76;50.77
18819;BME280;9537;45.594;9.294;2024-01-10T03:27:11;100650.41;;;6.74;50.95
18819;BME280;9537;45.594;9.294;2024-01-10T03:28:15;100659.09;;;6.74;51.17
18819;BME280;9537;45.594;9.294;2024-01-10T03:29:16;100656.47;;;6.74;50.70
18819;BME280;9537;45.594;9.294;2024-01-10T03:30:18;100653.84;;;6.74;50.37
18819;BME280;9537;45.594;9.294;2024-01-10T03:31:20;100659.25;;;6.73;51.49
18819;BME280;9537;45.594;9.294;2024-01-10T03:32:22;100656.72;;;6.71;50.92
18819;BME280;9537;45.594;9.294;2024-01-10T03:33:22;100662.81;;;6.72;51.65
18819;BME280;9537;45.594;9.294;2024-01-10T03:34:24;100659.34;;;6.71;50.91
18819;BME280;9537;45.594;9.294;2024-01-10T03:35:25;100661.97;;;6.71;51.49
18819;BME280;9537;45.594;9.294;2024-01-10T03:36:27;100654.00;;;6.73;50.61
18819;BME280;9537;45.594;9.294;2024-01-10T03:37:27;100654.09;;;6.71;50.91
18819;BME280;9537;45.594;9.294;2024-01-10T03:38:29;100650.66;;;6.71;50.67
18819;BME280;9537;45.594;9.294;2024-01-10T03:39:30;100653.28;;;6.71;50.89
18819;BME280;9537;45.594;9.294;2024-01-10T03:40:32;100648.38;;;6.66;50.89
18819;BME280;9537;45.594;9.294;2024-01-10T03:41:32;100653.38;;;6.69;50.41
18819;BME280;9537;45.594;9.294;2024-01-10T03:42:36;100654.25;;;6.70;51.18
18819;BME280;9537;45.594;9.294;2024-01-10T03:43:36;100660.31;;;6.70;51.65
18819;BME280;9537;45.594;9.294;2024-01-10T03:44:37;100657.81;;;6.69;51.71
18819;BME280;9537;45.594;9.294;2024-01-10T03:45:39;100655.91;;;6.71;52.06
18819;BME280;9537;45.594;9.294;2024-01-10T03:46:40;100659.50;;;6.70;51.53
18819;BME280;9537;45.594;9.294;2024-01-10T03:47:41;100656.00;;;6.69;52.15
18819;BME280;9537;45.594;9.294;2024-01-10T03:48:43;100655.31;;;6.67;51.68
18819;BME280;9537;45.594;9.294;2024-01-10T03:49:48;100651.97;;;6.65;51.52
18819;BME280;9537;45.594;9.294;2024-01-10T03:50:49;100655.31;;;6.67;51.65
18819;BME280;9537;45.594;9.294;2024-01-10T03:51:51;100649.94;;;6.69;51.57
18819;BME280;9537;45.594;9.294;2024-01-10T03:52:52;100659.75;;;6.67;51.48
18819;BME280;9537;45.594;9.294;2024-01-10T03:53:54;100654.34;;;6.68;51.26
18819;BME280;9537;45.594;9.294;2024-01-10T03:54:55;100655.19;;;6.69;51.38
18819;BME280;9537;45.594;9.294;2024-01-10T03:55:58;100655.19;;;6.69;50.96
18819;BME280;9537;45.594;9.294;2024-01-10T03:56:58;100652.69;;;6.67;51.78
18819;BME280;9537;45.594;9.294;2024-01-10T03:58:02;100658.88;;;6.66;51.09
18819;BME280;9537;45.594;9.294;2024-01-10T03:59:03;100654.59;;;6.65;51.84
18819;BME280;9537;45.594;9.294;2024-01-10T04:00:06;100653.78;;;6.65;51.86
18819;BME280;9537;45.594;9.294;2024-01-10T04:01:07;100656.41;;;6.65;51.31
18819;BME280;9537;45.594;9.294;2024-01-10T04:02:09;100662.56;;;6.64;52.26
18819;BME280;9537;45.594;9.294;2024-01-10T04:03:10;100657.47;;;6.62;52.89
18819;BME280;9537;45.594;9.294;2024-01-10T04:04:11;100664.38;;;6.63;53.68
18819;BME280;9537;45.594;9.294;2024-01-10T04:05:12;100661.91;;;6.62;53.59
18819;BME280;9537;45.594;9.294;2024-01-10T04:06:14;100659.13;;;6.63;53.62
18819;BME280;9537;45.594;9.294;2024-01-10T04:07:15;100665.22;;;6.64;52.62
18819;BME280;9537;45.594;9.294;2024-01-10T04:08:17;100656.63;;;6.62;52.71
18819;BME280;9537;45.594;9.294;2024-01-10T04:09:18;100664.38;;;6.63;53.23
18819;BME280;9537;45.594;9.294;2024-01-10T04:10:20;100660.09;;;6.62;53.22
18819;BME280;9537;45.594;9.294;2024-01-10T04:11:21;100661.16;;;6.60;53.19
18819;BME280;9537;45.594;9.294;2024-01-10T04:12:23;100673.47;;;6.59;52.59
18819;BME280;9537;45.594;9.294;2024-01-10T04:13:25;100667.38;;;6.59;52.52
18819;BME280;9537;45.594;9.294;2024-01-10T04:14:27;100671.91;;;6.57;51.97
18819;BME280;9537;45.594;9.294;2024-01-10T04:15:27;100662.13;;;6.59;52.71
18819;BME280;9537;45.594;9.294;2024-01-10T04:16:29;100662.13;;;6.59;52.02
18819;BME280;9537;45.594;9.294;2024-01-10T04:17:30;100668.22;;;6.59;52.70
18819;BME280;9537;45.594;9.294;2024-01-10T04:18:32;100671.81;;;6.58;52.63
18819;BME280;9537;45.594;9.294;2024-01-10T04:19:32;100670.84;;;6.59;52.51
18819;BME280;9537;45.594;9.294;2024-01-10T04:20:34;100670.94;;;6.58;52.92
18819;BME280;9537;45.594;9.294;2024-01-10T04:21:35;100664.88;;;6.57;52.75
18819;BME280;9537;45.594;9.294;2024-01-10T04:22:37;100666.78;;;6.55;53.06
18819;BME280;9537;45.594;9.294;2024-01-10T04:23:37;100670.38;;;6.54;52.13
18819;BME280;9537;45.594;9.294;2024-01-10T04:24:39;100667.88;;;6.52;53.10
18819;BME280;9537;45.594;9.294;2024-01-10T04:25:40;100666.09;;;6.53;52.84
18819;BME280;9537;45.594;9.294;2024-01-10T04:26:41;100669.53;;;6.53;52.62
18819;BME280;9537;45.594;9.294;2024-01-10T04:27:43;100664.28;;;6.53;52.30
18819;BME280;9537;45.594;9.294;2024-01-10T04:28:45;100677.28;;;6.55;52.19
18819;BME280;9537;45.594;9.294;2024-01-10T04:29:47;100669.41;;;6.55;52.86
18819;BME280;9537;45.594;9.294;2024-01-10T04:30:48;100673.72;;;6.56;53.15
18819;BME280;9537;45.594;9.294;2024-01-10T04:31:50;100666.66;;;6.57;52.21
18819;BME280;9537;45.594;9.294;2024-01-10T04:32:51;100664.16;;;6.55;52.44
18819;BME280;9537;45.594;9.294;2024-01-10T04:33:52;100666.78;;;6.55;51.70
18819;BME280;9537;45.594;9.294;2024-01-10T04:34:53;100665.13;;;6.54;52.19
18819;BME280;9537;45.594;9.294;2024-01-10T04:35:55;100666.78;;;6.55;52.15
18819;BME280;9537;45.594;9.294;2024-01-10T04:36:55;100660.69;;;6.54;52.69
18819;BME280;9537;45.594;9.294;2024-01-10T04:37:57;100665.13;;;6.54;51.94
18819;BME280;9537;45.594;9.294;2024-01-10T04:38:58;100667.75;;;6.54;51.70
18819;BME280;9537;45.594;9.294;2024-01-10T04:40:00;100662.84;;;6.49;51.87
18819;BME280;9537;45.594;9.294;2024-01-10T04:41:01;100663.94;;;6.47;52.01
18819;BME280;9537;45.594;9.294;2024-01-10T04:42:03;100660.22;;;6.49;52.44
18819;BME280;9537;45.594;9.294;2024-01-10T04:43:04;100662.75;;;6.51;51.77
18819;BME280;9537;45.594;9.294;2024-01-10T04:44:07;100664.53;;;6.50;52.14
18819;BME280;9537;45.594;9.294;2024-01-10T04:45:09;100664.53;;;6.50;53.00
18819;BME280;9537;45.594;9.294;2024-01-10T04:46:10;100655.84;;;6.50;52.54
18819;BME280;9537;45.594;9.294;2024-01-10T04:47:11;100661.09;;;6.50;53.17
18819;BME280;9537;45.594;9.294;2024-01-10T04:48:12;100661.19;;;6.48;52.99
18819;BME280;9537;45.594;9.294;2024-01-10T04:49:14;100661.09;;;6.50;52.61
18819;BME280;9537;45.594;9.294;2024-01-10T04:50:15;100662.75;;;6.51;53.36
18819;BME280;9537;45.594;9.294;2024-01-10T04:51:16;100664.41;;;6.52;52.67
18819;BME280;9537;45.594;9.294;2024-01-10T04:52:17;100660.84;;;6.53;53.11
18819;BME280;9537;45.594;9.294;2024-01-10T04:53:18;100658.22;;;6.53;53.06
18819;BME280;9537;45.594;9.294;2024-01-10T04:54:20;100663.47;;;6.53;53.34
18819;BME280;9537;45.594;9.294;2024-01-10T04:55:21;100670.38;;;6.54;53.17
18819;BME280;9537;45.594;9.294;2024-01-10T04:56:22;100663.47;;;6.53;53.54
18819;BME280;9537;45.594;9.294;2024-01-10T04:57:23;100660.13;;;6.51;54.12
18819;BME280;9537;45.594;9.294;2024-01-10T04:58:25;100660.94;;;6.51;53.79
18819;BME280;9537;45.594;9.294;2024-01-10T04:59:27;100661.78;;;6.52;53.15
18819;BME280;9537;45.594;9.294;2024-01-10T05:00:28;100657.38;;;6.52;53.68
18819;BME280;9537;45.594;9.294;2024-01-10T05:01:30;100660.13;;;6.51;54.09
18819;BME280;9537;45.594;9.294;2024-01-10T05:02:31;100660.13;;;6.51;53.99
18819;BME280;9537;45.594;9.294;2024-01-10T05:03:33;100661.09;;;6.50;54.64
18819;BME280;9537;45.594;9.294;2024-01-10T05:04:34;100661.19;;;6.48;55.35
18819;BME280;9537;45.594;9.294;2024-01-10T05:05:36;100659.28;;;6.50;55.17
18819;BME280;9537;45.594;9.294;2024-01-10T05:06:36;100661.19;;;6.48;55.92
18819;BME280;9537;45.594;9.294;2024-01-10T05:07:38;100663.72;;;6.50;55.89
18819;BME280;9537;45.594;9.294;2024-01-10T05:08:39;100672.50;;;6.49;55.54
18819;BME280;9537;45.594;9.294;2024-01-10T05:09:39;100667.28;;;6.49;55.75
18819;BME280;9537;45.594;9.294;2024-01-10T05:10:41;100661.31;;;6.47;55.84
18819;BME280;9537;45.594;9.294;2024-01-10T05:11:42;100672.66;;;6.47;55.94
18819;BME280;9537;45.594;9.294;2024-01-10T05:12:47;100676.09;;;6.48;55.78
18819;BME280;9537;45.594;9.294;2024-01-10T05:13:48;100674.44;;;6.47;56.12
18819;BME280;9537;45.594;9.294;2024-01-10T05:14:51;100674.44;;;6.47;55.90
18819;BME280;9537;45.594;9.294;2024-01-10T05:15:52;100675.38;;;6.46;55.26
18819;BME280;9537;45.594;9.294;2024-01-10T05:16:54;100678.00;;;6.46;55.42
18819;BME280;9537;45.594;9.294;2024-01-10T05:17:55;100676.22;;;6.46;55.95
18819;BME280;9537;45.594;9.294;2024-01-10T05:19:00;100681.59;;;6.45;55.74
18819;BME280;9537;45.594;9.294;2024-01-10T05:20:01;100682.44;;;6.45;57.00
18819;BME280;9537;45.594;9.294;2024-01-10T05:21:03;100676.59;;;6.42;57.36
18819;BME280;9537;45.594;9.294;2024-01-10T05:22:04;100680.16;;;6.41;57.11
18819;BME280;9537;45.594;9.294;2024-01-10T05:23:06;100682.66;;;6.42;56.41
18819;BME280;9537;45.594;9.294;2024-01-10T05:24:07;100684.47;;;6.42;56.37
18819;BME280;9537;45.594;9.294;2024-01-10T05:25:09;100676.69;;;6.40;56.55
18819;BME280;9537;45.594;9.294;2024-01-10T05:26:10;100683.75;;;6.40;56.52
18819;BME280;9537;45.594;9.294;2024-01-10T05:27:11;100682.19;;;6.37;56.05
18819;BME280;9537;45.594;9.294;2024-01-10T05:28:12;100679.81;;;6.34;54.78
18819;BME280;9537;45.594;9.294;2024-01-10T05:29:13;100681.59;;;6.34;55.33
18819;BME280;9537;45.594;9.294;2024-01-10T05:30:17;100678.84;;;6.35;55.26